Hama, Syria
Current Conditions -  °F | °C
As of 4:00 AM on Saturday 20 Dec 2014 (Local Time) from OSLK Reporting Station
Thunderstorm Thunderstorm  
Wind Chill: 54°   Ceiling: 10000
Heat Index: 54°   Visibility: 6mi
Dew Point: 52°   Wind: 5mph
Humidity: 94%   Direction: 10°N
Pressure: 30.09"   Gusts: NA
Location:  35.13°N, 36.75°E
Report Text: OSLK 200100Z 01004KT 9999 TS FEW026CB SCT030 BKN100 12/11 Q1019
Loading
Personal Weather Stations






























Interactive Weather Map New forecast layout! Learn more

10-Day Weather Forecast

Advertisements
Track Severe Weather on mobile